KDAY

James M Cox Dayton International Airport

Dayton, Ohio, USA
METAR KDAY 140456Z 33006KT 10SM SCT250 M03/M08 A3046 RMK AO2 SLP325 T10331078 400331033
Observed Flight Rules
Nov-14 @ 04:56 UTC (32 minutes ago) Visual Flight Rules
Wind Visibility Clouds
330° at 6 knots 10 miles
  • Scattered at 25,000' AGL
Temperatures Readings
Current -3°C / 27°F
Dewpoint -8°C / 18°F
Humidity 69%
Altimeter 30.46" Hg
Pressure 1032.5 hPa
Elevation 305
METAR KDAY 140456Z 33006KT 10SM SCT250 M03/M08 A3046 RMK AO2 SLP325 T10331078 400331033
Observed Flight Rules
Nov-14 @ 04:56 UTC
(32 minutes ago)
VFR
Wind Visibility
330° at 6 knots 10 miles
Clouds
  • Scattered at 25,000' AGL
Temperature Dewpoint
-3°C / 27°F -8°C / 18°F
Humidity Altimeter Pressure
69% 30.46" Hg 1032.5 hPa